sensor_id;sensor_type;location;lat;lon;timestamp;P1;durP1;ratioP1;P2;durP2;ratioP2
27489;SDS011;14925;51.026;13.752;2022-08-11T00:01:49;7.32;;;2.95;;
27489;SDS011;14925;51.026;13.752;2022-08-11T00:04:17;4.15;;;2.70;;
27489;SDS011;14925;51.026;13.752;2022-08-11T00:06:44;5.40;;;3.25;;
27489;SDS011;14925;51.026;13.752;2022-08-11T00:09:20;6.22;;;2.70;;
27489;SDS011;14925;51.026;13.752;2022-08-11T00:11:48;6.13;;;3.00;;
27489;SDS011;14925;51.026;13.752;2022-08-11T00:14:27;5.03;;;2.83;;
27489;SDS011;14925;51.026;13.752;2022-08-11T00:19:33;5.20;;;2.97;;
27489;SDS011;14925;51.026;13.752;2022-08-11T00:22:03;6.60;;;2.83;;
27489;SDS011;14925;51.026;13.752;2022-08-11T00:24:31;3.90;;;2.70;;
27489;SDS011;14925;51.026;13.752;2022-08-11T00:26:57;6.22;;;3.03;;
27489;SDS011;14925;51.026;13.752;2022-08-11T00:29:23;5.35;;;3.20;;
27489;SDS011;14925;51.026;13.752;2022-08-11T00:31:52;4.95;;;2.78;;
27489;SDS011;14925;51.026;13.752;2022-08-11T00:34:26;8.43;;;3.30;;
27489;SDS011;14925;51.026;13.752;2022-08-11T00:37:04;7.82;;;2.70;;
27489;SDS011;14925;51.026;13.752;2022-08-11T00:39:33;4.05;;;2.88;;
27489;SDS011;14925;51.026;13.752;2022-08-11T00:48:35;5.60;;;2.92;;
27489;SDS011;14925;51.026;13.752;2022-08-11T00:50:43;5.97;;;3.10;;
27489;SDS011;14925;51.026;13.752;2022-08-11T01:01:32;6.38;;;3.17;;
27489;SDS011;14925;51.026;13.752;2022-08-11T01:46:20;5.75;;;3.42;;
27489;SDS011;14925;51.026;13.752;2022-08-11T01:51:51;5.32;;;2.88;;
27489;SDS011;14925;51.026;13.752;2022-08-11T01:59:49;5.80;;;3.50;;
27489;SDS011;14925;51.026;13.752;2022-08-11T02:02:25;4.65;;;2.97;;
27489;SDS011;14925;51.026;13.752;2022-08-11T02:08:02;5.50;;;3.35;;
27489;SDS011;14925;51.026;13.752;2022-08-11T02:19:09;5.55;;;3.40;;
27489;SDS011;14925;51.026;13.752;2022-08-11T02:22:05;6.55;;;3.17;;
27489;SDS011;14925;51.026;13.752;2022-08-11T02:30:27;4.50;;;3.40;;
27489;SDS011;14925;51.026;13.752;2022-08-11T02:33:00;4.90;;;3.20;;
27489;SDS011;14925;51.026;13.752;2022-08-11T02:36:02;5.40;;;3.33;;
27489;SDS011;14925;51.026;13.752;2022-08-11T02:50:18;6.03;;;3.20;;
27489;SDS011;14925;51.026;13.752;2022-08-11T02:55:31;5.13;;;3.65;;
27489;SDS011;14925;51.026;13.752;2022-08-11T03:01:08;4.75;;;3.35;;
27489;SDS011;14925;51.026;13.752;2022-08-11T03:12:10;9.07;;;3.60;;
27489;SDS011;14925;51.026;13.752;2022-08-11T03:15:06;6.57;;;3.78;;
27489;SDS011;14925;51.026;13.752;2022-08-11T03:18:17;7.38;;;3.53;;
27489;SDS011;14925;51.026;13.752;2022-08-11T03:24:01;5.72;;;3.85;;
27489;SDS011;14925;51.026;13.752;2022-08-11T03:26:31;8.07;;;4.03;;
27489;SDS011;14925;51.026;13.752;2022-08-11T03:29:07;7.72;;;4.30;;
27489;SDS011;14925;51.026;13.752;2022-08-11T03:31:36;7.53;;;4.22;;
27489;SDS011;14925;51.026;13.752;2022-08-11T03:34:09;6.43;;;4.13;;
27489;SDS011;14925;51.026;13.752;2022-08-11T03:45:29;5.63;;;4.07;;
27489;SDS011;14925;51.026;13.752;2022-08-11T03:50:33;5.82;;;4.20;;
27489;SDS011;14925;51.026;13.752;2022-08-11T03:59:05;7.47;;;4.63;;
27489;SDS011;14925;51.026;13.752;2022-08-11T04:11:05;7.38;;;4.05;;
27489;SDS011;14925;51.026;13.752;2022-08-11T04:22:12;7.50;;;4.03;;
27489;SDS011;14925;51.026;13.752;2022-08-11T04:36:09;6.35;;;4.20;;
27489;SDS011;14925;51.026;13.752;2022-08-11T04:48:01;6.10;;;4.10;;
27489;SDS011;14925;51.026;13.752;2022-08-11T04:54:16;6.63;;;3.83;;
27489;SDS011;14925;51.026;13.752;2022-08-11T04:57:40;7.95;;;3.67;;
27489;SDS011;14925;51.026;13.752;2022-08-11T05:06:16;9.38;;;4.47;;
27489;SDS011;14925;51.026;13.752;2022-08-11T05:09:12;7.93;;;4.32;;
27489;SDS011;14925;51.026;13.752;2022-08-11T05:11:50;9.30;;;4.60;;
27489;SDS011;14925;51.026;13.752;2022-08-11T05:14:29;11.02;;;4.30;;
27489;SDS011;14925;51.026;13.752;2022-08-11T05:17:22;8.82;;;4.43;;
27489;SDS011;14925;51.026;13.752;2022-08-11T05:20:11;7.93;;;4.47;;
27489;SDS011;14925;51.026;13.752;2022-08-11T05:22:55;12.00;;;4.57;;
27489;SDS011;14925;51.026;13.752;2022-08-11T05:25:48;7.50;;;4.20;;
27489;SDS011;14925;51.026;13.752;2022-08-11T05:28:55;8.80;;;4.10;;
27489;SDS011;14925;51.026;13.752;2022-08-11T05:31:45;10.98;;;4.50;;
27489;SDS011;14925;51.026;13.752;2022-08-11T05:34:39;7.18;;;4.30;;
27489;SDS011;14925;51.026;13.752;2022-08-11T05:39:59;5.20;;;3.90;;
27489;SDS011;14925;51.026;13.752;2022-08-11T05:42:54;7.15;;;4.40;;
27489;SDS011;14925;51.026;13.752;2022-08-11T05:45:41;7.13;;;3.78;;
27489;SDS011;14925;51.026;13.752;2022-08-11T05:48:33;8.20;;;3.88;;
27489;SDS011;14925;51.026;13.752;2022-08-11T05:51:18;8.52;;;3.85;;
27489;SDS011;14925;51.026;13.752;2022-08-11T05:56:48;6.32;;;3.42;;
27489;SDS011;14925;51.026;13.752;2022-08-11T05:59:15;5.70;;;3.53;;
27489;SDS011;14925;51.026;13.752;2022-08-11T06:01:42;6.30;;;3.70;;
27489;SDS011;14925;51.026;13.752;2022-08-11T06:04:11;9.80;;;3.72;;
27489;SDS011;14925;51.026;13.752;2022-08-11T06:06:47;3.88;;;2.95;;
27489;SDS011;14925;51.026;13.752;2022-08-11T06:09:24;7.35;;;3.00;;
27489;SDS011;14925;51.026;13.752;2022-08-11T06:12:03;6.78;;;3.15;;
27489;SDS011;14925;51.026;13.752;2022-08-11T06:14:31;8.00;;;3.30;;
27489;SDS011;14925;51.026;13.752;2022-08-11T06:16:58;8.18;;;3.60;;
27489;SDS011;14925;51.026;13.752;2022-08-11T06:19:34;6.97;;;2.90;;
27489;SDS011;14925;51.026;13.752;2022-08-11T06:22:01;9.82;;;3.00;;
27489;SDS011;14925;51.026;13.752;2022-08-11T06:24:27;4.55;;;2.95;;
27489;SDS011;14925;51.026;13.752;2022-08-11T06:26:56;7.47;;;3.22;;
27489;SDS011;14925;51.026;13.752;2022-08-11T06:29:25;11.40;;;3.50;;
27489;SDS011;14925;51.026;13.752;2022-08-11T06:31:52;8.00;;;3.13;;
27489;SDS011;14925;51.026;13.752;2022-08-11T06:34:48;8.35;;;3.40;;
27489;SDS011;14925;51.026;13.752;2022-08-11T06:45:52;8.38;;;3.60;;
27489;SDS011;14925;51.026;13.752;2022-08-11T06:48:29;6.25;;;3.65;;
27489;SDS011;14925;51.026;13.752;2022-08-11T06:50:58;6.70;;;3.67;;
27489;SDS011;14925;51.026;13.752;2022-08-11T06:56:11;8.10;;;3.60;;
27489;SDS011;14925;51.026;13.752;2022-08-11T06:58:56;6.60;;;3.13;;
27489;SDS011;14925;51.026;13.752;2022-08-11T07:07:30;4.57;;;3.03;;
27489;SDS011;14925;51.026;13.752;2022-08-11T07:13:48;8.82;;;2.85;;
27489;SDS011;14925;51.026;13.752;2022-08-11T07:16:35;4.63;;;2.90;;
27489;SDS011;14925;51.026;13.752;2022-08-11T07:19:03;6.28;;;3.00;;
27489;SDS011;14925;51.026;13.752;2022-08-11T07:21:49;8.18;;;2.97;;
27489;SDS011;14925;51.026;13.752;2022-08-11T07:24:39;8.07;;;3.10;;
27489;SDS011;14925;51.026;13.752;2022-08-11T07:27:29;8.07;;;2.80;;
27489;SDS011;14925;51.026;13.752;2022-08-11T07:30:15;8.40;;;2.67;;
27489;SDS011;14925;51.026;13.752;2022-08-11T07:32:51;5.05;;;2.47;;
27489;SDS011;14925;51.026;13.752;2022-08-11T07:35:23;7.90;;;3.20;;
27489;SDS011;14925;51.026;13.752;2022-08-11T07:38:03;6.25;;;2.80;;
27489;SDS011;14925;51.026;13.752;2022-08-11T07:40:33;9.30;;;3.15;;
27489;SDS011;14925;51.026;13.752;2022-08-11T07:42:59;12.55;;;3.20;;
27489;SDS011;14925;51.026;13.752;2022-08-11T07:45:28;7.47;;;2.80;;
27489;SDS011;14925;51.026;13.752;2022-08-11T07:48:13;10.00;;;2.92;;
27489;SDS011;14925;51.026;13.752;2022-08-11T07:50:57;5.78;;;2.90;;
27489;SDS011;14925;51.026;13.752;2022-08-11T07:53:48;6.07;;;2.80;;
27489;SDS011;14925;51.026;13.752;2022-08-11T07:56:41;4.70;;;2.50;;
27489;SDS011;14925;51.026;13.752;2022-08-11T08:02:04;8.98;;;2.75;;
27489;SDS011;14925;51.026;13.752;2022-08-11T08:04:48;8.02;;;2.40;;
27489;SDS011;14925;51.026;13.752;2022-08-11T08:07:32;8.43;;;2.33;;
27489;SDS011;14925;51.026;13.752;2022-08-11T08:10:17;8.70;;;2.47;;
27489;SDS011;14925;51.026;13.752;2022-08-11T08:13:05;8.88;;;2.22;;
27489;SDS011;14925;51.026;13.752;2022-08-11T08:15:48;6.38;;;2.50;;
27489;SDS011;14925;51.026;13.752;2022-08-11T08:18:33;4.72;;;2.10;;
27489;SDS011;14925;51.026;13.752;2022-08-11T08:21:03;2.60;;;1.92;;
27489;SDS011;14925;51.026;13.752;2022-08-11T08:23:40;5.18;;;2.08;;
27489;SDS011;14925;51.026;13.752;2022-08-11T08:26:08;4.45;;;2.47;;
27489;SDS011;14925;51.026;13.752;2022-08-11T08:28:59;5.85;;;2.00;;
27489;SDS011;14925;51.026;13.752;2022-08-11T08:31:47;6.25;;;2.20;;
27489;SDS011;14925;51.026;13.752;2022-08-11T08:34:14;7.22;;;2.03;;
27489;SDS011;14925;51.026;13.752;2022-08-11T08:36:46;2.13;;;1.77;;
27489;SDS011;14925;51.026;13.752;2022-08-11T08:39:13;8.15;;;2.30;;
27489;SDS011;14925;51.026;13.752;2022-08-11T08:41:44;6.60;;;2.20;;
27489;SDS011;14925;51.026;13.752;2022-08-11T08:44:11;4.93;;;1.90;;
27489;SDS011;14925;51.026;13.752;2022-08-11T08:46:41;7.80;;;2.17;;
27489;SDS011;14925;51.026;13.752;2022-08-11T08:49:09;8.55;;;1.88;;
27489;SDS011;14925;51.026;13.752;2022-08-11T08:51:41;9.13;;;1.80;;
27489;SDS011;14925;51.026;13.752;2022-08-11T08:54:13;5.90;;;1.88;;
27489;SDS011;14925;51.026;13.752;2022-08-11T08:56:41;7.33;;;2.27;;
27489;SDS011;14925;51.026;13.752;2022-08-11T08:59:08;3.70;;;1.88;;
27489;SDS011;14925;51.026;13.752;2022-08-11T09:01:36;9.13;;;2.17;;
27489;SDS011;14925;51.026;13.752;2022-08-11T09:04:09;7.03;;;1.80;;
27489;SDS011;14925;51.026;13.752;2022-08-11T09:06:38;8.77;;;2.10;;
27489;SDS011;14925;51.026;13.752;2022-08-11T09:09:09;4.95;;;2.00;;
27489;SDS011;14925;51.026;13.752;2022-08-11T09:11:58;8.23;;;2.08;;
27489;SDS011;14925;51.026;13.752;2022-08-11T09:14:32;5.00;;;1.90;;
27489;SDS011;14925;51.026;13.752;2022-08-11T09:17:20;6.97;;;2.08;;
27489;SDS011;14925;51.026;13.752;2022-08-11T09:19:47;4.00;;;2.13;;
27489;SDS011;14925;51.026;13.752;2022-08-11T09:22:17;8.80;;;2.28;;
27489;SDS011;14925;51.026;13.752;2022-08-11T09:25:02;3.78;;;2.15;;
27489;SDS011;14925;51.026;13.752;2022-08-11T09:27:54;7.90;;;2.00;;
27489;SDS011;14925;51.026;13.752;2022-08-11T09:30:24;11.15;;;2.35;;
27489;SDS011;14925;51.026;13.752;2022-08-11T09:32:51;3.38;;;1.90;;
27489;SDS011;14925;51.026;13.752;2022-08-11T09:35:22;4.18;;;1.95;;
27489;SDS011;14925;51.026;13.752;2022-08-11T09:37:49;5.95;;;2.05;;
27489;SDS011;14925;51.026;13.752;2022-08-11T09:40:33;3.40;;;2.20;;
27489;SDS011;14925;51.026;13.752;2022-08-11T09:43:01;5.43;;;2.10;;
27489;SDS011;14925;51.026;13.752;2022-08-11T09:45:47;7.28;;;1.90;;
27489;SDS011;14925;51.026;13.752;2022-08-11T09:48:16;9.90;;;2.38;;
27489;SDS011;14925;51.026;13.752;2022-08-11T09:50:49;3.45;;;2.25;;
27489;SDS011;14925;51.026;13.752;2022-08-11T09:53:16;6.68;;;2.10;;
27489;SDS011;14925;51.026;13.752;2022-08-11T09:55:43;7.00;;;2.10;;
27489;SDS011;14925;51.026;13.752;2022-08-11T09:58:22;5.78;;;2.00;;
27489;SDS011;14925;51.026;13.752;2022-08-11T10:00:54;3.00;;;1.98;;
27489;SDS011;14925;51.026;13.752;2022-08-11T10:03:22;4.22;;;2.10;;
27489;SDS011;14925;51.026;13.752;2022-08-11T10:05:54;3.33;;;2.20;;
27489;SDS011;14925;51.026;13.752;2022-08-11T10:08:40;10.00;;;1.92;;
27489;SDS011;14925;51.026;13.752;2022-08-11T10:11:10;5.85;;;1.80;;
27489;SDS011;14925;51.026;13.752;2022-08-11T10:13:45;5.82;;;1.98;;
27489;SDS011;14925;51.026;13.752;2022-08-11T10:16:30;6.15;;;1.95;;
27489;SDS011;14925;51.026;13.752;2022-08-11T10:18:58;6.85;;;1.73;;
27489;SDS011;14925;51.026;13.752;2022-08-11T10:24:02;5.97;;;1.70;;
27489;SDS011;14925;51.026;13.752;2022-08-11T10:26:47;6.90;;;2.00;;
27489;SDS011;14925;51.026;13.752;2022-08-11T10:30:00;5.45;;;1.80;;
27489;SDS011;14925;51.026;13.752;2022-08-11T10:32:40;8.43;;;1.70;;
27489;SDS011;14925;51.026;13.752;2022-08-11T10:35:28;8.30;;;1.90;;
27489;SDS011;14925;51.026;13.752;2022-08-11T10:37:57;10.50;;;2.05;;
27489;SDS011;14925;51.026;13.752;2022-08-11T10:40:28;8.55;;;1.90;;
27489;SDS011;14925;51.026;13.752;2022-08-11T10:43:00;4.38;;;1.70;;
27489;SDS011;14925;51.026;13.752;2022-08-11T10:45:53;4.10;;;1.70;;
27489;SDS011;14925;51.026;13.752;2022-08-11T10:52:37;5.68;;;1.50;;
27489;SDS011;14925;51.026;13.752;2022-08-11T10:55:46;6.55;;;1.50;;
27489;SDS011;14925;51.026;13.752;2022-08-11T10:58:52;6.57;;;1.60;;
27489;SDS011;14925;51.026;13.752;2022-08-11T11:01:32;7.80;;;1.65;;
27489;SDS011;14925;51.026;13.752;2022-08-11T11:04:04;3.20;;;1.40;;
27489;SDS011;14925;51.026;13.752;2022-08-11T11:09:32;5.30;;;1.40;;
27489;SDS011;14925;51.026;13.752;2022-08-11T11:15:02;7.65;;;1.50;;
27489;SDS011;14925;51.026;13.752;2022-08-11T11:21:00;6.75;;;1.70;;
27489;SDS011;14925;51.026;13.752;2022-08-11T11:23:39;5.05;;;1.40;;
27489;SDS011;14925;51.026;13.752;2022-08-11T11:37:40;1.95;;;1.20;;
27489;SDS011;14925;51.026;13.752;2022-08-11T11:40:17;7.22;;;1.40;;
27489;SDS011;14925;51.026;13.752;2022-08-11T11:42:47;5.82;;;1.30;;
27489;SDS011;14925;51.026;13.752;2022-08-11T11:45:14;7.32;;;1.30;;
27489;SDS011;14925;51.026;13.752;2022-08-11T11:47:44;4.45;;;1.42;;
27489;SDS011;14925;51.026;13.752;2022-08-11T11:50:24;1.85;;;1.10;;
27489;SDS011;14925;51.026;13.752;2022-08-11T11:52:50;2.33;;;1.23;;
27489;SDS011;14925;51.026;13.752;2022-08-11T11:55:17;4.15;;;1.20;;
27489;SDS011;14925;51.026;13.752;2022-08-11T11:57:44;3.88;;;1.05;;
27489;SDS011;14925;51.026;13.752;2022-08-11T12:00:28;2.78;;;1.35;;
27489;SDS011;14925;51.026;13.752;2022-08-11T12:03:13;3.88;;;1.20;;
27489;SDS011;14925;51.026;13.752;2022-08-11T12:05:38;4.72;;;1.20;;
27489;SDS011;14925;51.026;13.752;2022-08-11T12:08:06;1.17;;;1.02;;
27489;SDS011;14925;51.026;13.752;2022-08-11T12:10:51;3.97;;;1.10;;
27489;SDS011;14925;51.026;13.752;2022-08-11T12:13:38;5.55;;;1.00;;
27489;SDS011;14925;51.026;13.752;2022-08-11T12:16:04;6.47;;;0.98;;
27489;SDS011;14925;51.026;13.752;2022-08-11T12:18:31;3.97;;;1.10;;
27489;SDS011;14925;51.026;13.752;2022-08-11T12:20:58;2.47;;;1.10;;
27489;SDS011;14925;51.026;13.752;2022-08-11T12:23:27;5.20;;;1.15;;
27489;SDS011;14925;51.026;13.752;2022-08-11T12:26:14;2.65;;;1.20;;
27489;SDS011;14925;51.026;13.752;2022-08-11T12:28:59;0.85;;;0.85;;
27489;SDS011;14925;51.026;13.752;2022-08-11T12:31:27;2.75;;;0.90;;
27489;SDS011;14925;51.026;13.752;2022-08-11T12:33:58;3.20;;;1.10;;
27489;SDS011;14925;51.026;13.752;2022-08-11T12:36:25;3.00;;;1.00;;
27489;SDS011;14925;51.026;13.752;2022-08-11T12:38:54;5.72;;;1.23;;
27489;SDS011;14925;51.026;13.752;2022-08-11T12:41:20;3.60;;;1.00;;
27489;SDS011;14925;51.026;13.752;2022-08-11T12:44:04;3.13;;;0.95;;
27489;SDS011;14925;51.026;13.752;2022-08-11T12:46:50;11.57;;;1.27;;
27489;SDS011;14925;51.026;13.752;2022-08-11T12:49:17;5.78;;;1.20;;
27489;SDS011;14925;51.026;13.752;2022-08-11T12:52:06;3.40;;;1.25;;
27489;SDS011;14925;51.026;13.752;2022-08-11T13:00:16;5.93;;;1.10;;
27489;SDS011;14925;51.026;13.752;2022-08-11T13:03:01;8.80;;;1.20;;
27489;SDS011;14925;51.026;13.752;2022-08-11T13:05:46;5.70;;;1.20;;
27489;SDS011;14925;51.026;13.752;2022-08-11T13:08:13;5.80;;;1.38;;
27489;SDS011;14925;51.026;13.752;2022-08-11T13:10:42;4.05;;;1.20;;
27489;SDS011;14925;51.026;13.752;2022-08-11T13:13:27;4.78;;;1.15;;
27489;SDS011;14925;51.026;13.752;2022-08-11T13:15:52;1.75;;;1.30;;
27489;SDS011;14925;51.026;13.752;2022-08-11T13:18:19;5.43;;;1.40;;
27489;SDS011;14925;51.026;13.752;2022-08-11T13:20:48;5.82;;;1.50;;
27489;SDS011;14925;51.026;13.752;2022-08-11T13:23:21;5.35;;;1.30;;
27489;SDS011;14925;51.026;13.752;2022-08-11T13:25:47;3.10;;;1.60;;
27489;SDS011;14925;51.026;13.752;2022-08-11T13:28:14;6.57;;;1.30;;
27489;SDS011;14925;51.026;13.752;2022-08-11T13:30:42;3.22;;;1.25;;
27489;SDS011;14925;51.026;13.752;2022-08-11T13:33:29;3.30;;;1.60;;
27489;SDS011;14925;51.026;13.752;2022-08-11T13:35:54;9.02;;;1.40;;
27489;SDS011;14925;51.026;13.752;2022-08-11T13:38:20;2.15;;;1.20;;
27489;SDS011;14925;51.026;13.752;2022-08-11T13:40:51;3.58;;;1.40;;
27489;SDS011;14925;51.026;13.752;2022-08-11T13:43:18;4.93;;;1.35;;
27489;SDS011;14925;51.026;13.752;2022-08-11T13:45:44;2.22;;;1.40;;
27489;SDS011;14925;51.026;13.752;2022-08-11T13:48:11;4.72;;;1.40;;
27489;SDS011;14925;51.026;13.752;2022-08-11T13:50:43;3.55;;;1.30;;
27489;SDS011;14925;51.026;13.752;2022-08-11T13:53:28;3.78;;;1.40;;
27489;SDS011;14925;51.026;13.752;2022-08-11T13:55:59;2.22;;;1.60;;
27489;SDS011;14925;51.026;13.752;2022-08-11T13:58:25;3.25;;;1.42;;
27489;SDS011;14925;51.026;13.752;2022-08-11T14:00:51;3.10;;;1.25;;
27489;SDS011;14925;51.026;13.752;2022-08-11T14:03:22;2.72;;;1.30;;
27489;SDS011;14925;51.026;13.752;2022-08-11T14:05:52;5.25;;;1.55;;
27489;SDS011;14925;51.026;13.752;2022-08-11T14:08:23;4.75;;;1.60;;
27489;SDS011;14925;51.026;13.752;2022-08-11T14:10:54;5.53;;;1.73;;
27489;SDS011;14925;51.026;13.752;2022-08-11T14:13:42;8.90;;;1.70;;
27489;SDS011;14925;51.026;13.752;2022-08-11T14:16:15;5.35;;;1.65;;
27489;SDS011;14925;51.026;13.752;2022-08-11T14:18:43;5.38;;;1.50;;
27489;SDS011;14925;51.026;13.752;2022-08-11T14:21:14;4.93;;;1.52;;
27489;SDS011;14925;51.026;13.752;2022-08-11T14:23:59;5.13;;;1.58;;
27489;SDS011;14925;51.026;13.752;2022-08-11T14:26:25;5.32;;;1.52;;
27489;SDS011;14925;51.026;13.752;2022-08-11T14:29:16;5.97;;;1.60;;
27489;SDS011;14925;51.026;13.752;2022-08-11T14:31:47;4.78;;;1.67;;
27489;SDS011;14925;51.026;13.752;2022-08-11T14:34:18;5.30;;;1.52;;
27489;SDS011;14925;51.026;13.752;2022-08-11T14:37:07;3.80;;;1.52;;
27489;SDS011;14925;51.026;13.752;2022-08-11T14:39:37;8.68;;;1.60;;
27489;SDS011;14925;51.026;13.752;2022-08-11T14:42:06;8.13;;;2.00;;
27489;SDS011;14925;51.026;13.752;2022-08-11T14:44:57;2.70;;;1.50;;
27489;SDS011;14925;51.026;13.752;2022-08-11T14:47:45;2.58;;;1.63;;
27489;SDS011;14925;51.026;13.752;2022-08-11T14:50:13;3.15;;;1.50;;
27489;SDS011;14925;51.026;13.752;2022-08-11T14:56:06;2.05;;;1.48;;
27489;SDS011;14925;51.026;13.752;2022-08-11T14:58:50;3.45;;;1.30;;
27489;SDS011;14925;51.026;13.752;2022-08-11T15:01:25;3.95;;;1.38;;
27489;SDS011;14925;51.026;13.752;2022-08-11T15:04:09;3.80;;;1.77;;
27489;SDS011;14925;51.026;13.752;2022-08-11T15:06:34;4.28;;;1.60;;
27489;SDS011;14925;51.026;13.752;2022-08-11T15:09:04;6.38;;;1.55;;
27489;SDS011;14925;51.026;13.752;2022-08-11T15:11:30;9.95;;;1.90;;
27489;SDS011;14925;51.026;13.752;2022-08-11T15:14:14;2.58;;;1.30;;
27489;SDS011;14925;51.026;13.752;2022-08-11T15:17:03;4.50;;;1.60;;
27489;SDS011;14925;51.026;13.752;2022-08-11T15:19:35;7.32;;;1.65;;
27489;SDS011;14925;51.026;13.752;2022-08-11T15:22:23;2.47;;;1.40;;
27489;SDS011;14925;51.026;13.752;2022-08-11T15:27:33;3.95;;;1.42;;
27489;SDS011;14925;51.026;13.752;2022-08-11T15:30:18;7.00;;;1.80;;
27489;SDS011;14925;51.026;13.752;2022-08-11T15:33:03;4.40;;;1.95;;
27489;SDS011;14925;51.026;13.752;2022-08-11T15:35:49;4.05;;;1.45;;
27489;SDS011;14925;51.026;13.752;2022-08-11T15:38:33;2.53;;;1.60;;
27489;SDS011;14925;51.026;13.752;2022-08-11T15:41:00;3.10;;;1.65;;
27489;SDS011;14925;51.026;13.752;2022-08-11T15:43:53;4.38;;;1.70;;
27489;SDS011;14925;51.026;13.752;2022-08-11T15:51:44;2.95;;;1.40;;
27489;SDS011;14925;51.026;13.752;2022-08-11T15:54:23;4.93;;;1.52;;
27489;SDS011;14925;51.026;13.752;2022-08-11T15:56:55;5.50;;;1.70;;
27489;SDS011;14925;51.026;13.752;2022-08-11T15:59:22;3.83;;;1.50;;
27489;SDS011;14925;51.026;13.752;2022-08-11T16:02:10;3.10;;;1.77;;
27489;SDS011;14925;51.026;13.752;2022-08-11T16:04:57;3.38;;;1.52;;
27489;SDS011;14925;51.026;13.752;2022-08-11T16:07:28;4.43;;;1.70;;
27489;SDS011;14925;51.026;13.752;2022-08-11T16:09:56;5.57;;;1.60;;
27489;SDS011;14925;51.026;13.752;2022-08-11T16:14:58;3.38;;;1.50;;
27489;SDS011;14925;51.026;13.752;2022-08-11T16:17:51;6.15;;;1.73;;
27489;SDS011;14925;51.026;13.752;2022-08-11T16:20:19;2.88;;;1.50;;
27489;SDS011;14925;51.026;13.752;2022-08-11T16:23:04;4.90;;;1.63;;
27489;SDS011;14925;51.026;13.752;2022-08-11T16:25:34;4.18;;;2.10;;
27489;SDS011;14925;51.026;13.752;2022-08-11T16:28:03;6.75;;;1.90;;
27489;SDS011;14925;51.026;13.752;2022-08-11T16:30:30;3.83;;;1.55;;
27489;SDS011;14925;51.026;13.752;2022-08-11T16:32:57;5.45;;;1.63;;
27489;SDS011;14925;51.026;13.752;2022-08-11T16:35:23;2.00;;;1.67;;
27489;SDS011;14925;51.026;13.752;2022-08-11T16:38:09;4.38;;;1.85;;
27489;SDS011;14925;51.026;13.752;2022-08-11T16:40:53;4.07;;;1.85;;
27489;SDS011;14925;51.026;13.752;2022-08-11T16:43:24;5.10;;;1.77;;
27489;SDS011;14925;51.026;13.752;2022-08-11T16:46:11;3.75;;;1.50;;
27489;SDS011;14925;51.026;13.752;2022-08-11T16:49:04;3.05;;;1.50;;
27489;SDS011;14925;51.026;13.752;2022-08-11T16:51:31;4.90;;;1.67;;
27489;SDS011;14925;51.026;13.752;2022-08-11T16:53:57;2.15;;;1.50;;
27489;SDS011;14925;51.026;13.752;2022-08-11T16:56:27;2.22;;;1.60;;
27489;SDS011;14925;51.026;13.752;2022-08-11T16:58:56;2.47;;;1.50;;
27489;SDS011;14925;51.026;13.752;2022-08-11T17:02:01;3.03;;;1.20;;
27489;SDS011;14925;51.026;13.752;2022-08-11T17:04:56;5.25;;;1.30;;
27489;SDS011;14925;51.026;13.752;2022-08-11T17:07:42;3.70;;;1.40;;
27489;SDS011;14925;51.026;13.752;2022-08-11T17:10:32;8.00;;;1.48;;
27489;SDS011;14925;51.026;13.752;2022-08-11T17:13:31;3.72;;;1.40;;
27489;SDS011;14925;51.026;13.752;2022-08-11T17:16:01;2.97;;;1.40;;
27489;SDS011;14925;51.026;13.752;2022-08-11T17:21:33;7.63;;;1.60;;
27489;SDS011;14925;51.026;13.752;2022-08-11T17:24:25;3.97;;;1.40;;
27489;SDS011;14925;51.026;13.752;2022-08-11T17:26:55;4.13;;;1.30;;
27489;SDS011;14925;51.026;13.752;2022-08-11T17:29:40;3.58;;;1.40;;
27489;SDS011;14925;51.026;13.752;2022-08-11T17:32:32;3.10;;;1.50;;
27489;SDS011;14925;51.026;13.752;2022-08-11T17:35:20;3.10;;;1.50;;
27489;SDS011;14925;51.026;13.752;2022-08-11T17:38:04;3.03;;;1.30;;
27489;SDS011;14925;51.026;13.752;2022-08-11T17:40:39;4.07;;;1.40;;
27489;SDS011;14925;51.026;13.752;2022-08-11T17:43:51;6.60;;;3.53;;
27489;SDS011;14925;51.026;13.752;2022-08-11T17:46:37;5.03;;;3.63;;
27489;SDS011;14925;51.026;13.752;2022-08-11T17:49:24;6.40;;;2.50;;
27489;SDS011;14925;51.026;13.752;2022-08-11T17:52:01;2.38;;;1.42;;
27489;SDS011;14925;51.026;13.752;2022-08-11T17:54:46;3.20;;;1.60;;
27489;SDS011;14925;51.026;13.752;2022-08-11T17:57:30;4.03;;;1.40;;
27489;SDS011;14925;51.026;13.752;2022-08-11T18:00:17;4.75;;;1.50;;
27489;SDS011;14925;51.026;13.752;2022-08-11T18:02:48;4.72;;;1.38;;
27489;SDS011;14925;51.026;13.752;2022-08-11T18:05:41;2.63;;;1.33;;
27489;SDS011;14925;51.026;13.752;2022-08-11T18:08:08;4.05;;;1.70;;
27489;SDS011;14925;51.026;13.752;2022-08-11T18:11:04;13.60;;;2.17;;
27489;SDS011;14925;51.026;13.752;2022-08-11T18:13:52;2.35;;;1.42;;
27489;SDS011;14925;51.026;13.752;2022-08-11T18:16:36;3.83;;;1.30;;
27489;SDS011;14925;51.026;13.752;2022-08-11T18:19:21;5.28;;;1.70;;
27489;SDS011;14925;51.026;13.752;2022-08-11T18:22:08;4.55;;;1.50;;
27489;SDS011;14925;51.026;13.752;2022-08-11T18:25:20;5.85;;;1.70;;
27489;SDS011;14925;51.026;13.752;2022-08-11T18:28:18;3.08;;;1.40;;
27489;SDS011;14925;51.026;13.752;2022-08-11T18:31:10;4.30;;;1.40;;
27489;SDS011;14925;51.026;13.752;2022-08-11T18:34:01;3.70;;;1.48;;
27489;SDS011;14925;51.026;13.752;2022-08-11T18:36:48;4.78;;;1.50;;
27489;SDS011;14925;51.026;13.752;2022-08-11T18:39:52;2.95;;;1.60;;
27489;SDS011;14925;51.026;13.752;2022-08-11T18:42:50;1.80;;;1.40;;
27489;SDS011;14925;51.026;13.752;2022-08-11T18:45:40;5.63;;;1.70;;
27489;SDS011;14925;51.026;13.752;2022-08-11T18:51:08;3.83;;;1.40;;
27489;SDS011;14925;51.026;13.752;2022-08-11T18:53:56;3.80;;;1.40;;
27489;SDS011;14925;51.026;13.752;2022-08-11T18:56:47;3.95;;;1.50;;
27489;SDS011;14925;51.026;13.752;2022-08-11T18:59:34;4.85;;;1.67;;
27489;SDS011;14925;51.026;13.752;2022-08-11T19:02:21;5.40;;;2.00;;
27489;SDS011;14925;51.026;13.752;2022-08-11T19:05:06;3.53;;;1.95;;
27489;SDS011;14925;51.026;13.752;2022-08-11T19:07:50;3.13;;;1.77;;
27489;SDS011;14925;51.026;13.752;2022-08-11T19:10:36;6.47;;;1.58;;
27489;SDS011;14925;51.026;13.752;2022-08-11T19:13:20;5.90;;;1.88;;
27489;SDS011;14925;51.026;13.752;2022-08-11T19:16:05;3.70;;;1.88;;
27489;SDS011;14925;51.026;13.752;2022-08-11T19:18:49;4.68;;;1.80;;
27489;SDS011;14925;51.026;13.752;2022-08-11T19:21:34;2.55;;;1.70;;
27489;SDS011;14925;51.026;13.752;2022-08-11T19:24:19;3.78;;;2.00;;
27489;SDS011;14925;51.026;13.752;2022-08-11T19:27:14;3.65;;;1.77;;
27489;SDS011;14925;51.026;13.752;2022-08-11T19:29:58;3.53;;;1.80;;
27489;SDS011;14925;51.026;13.752;2022-08-11T19:32:43;5.53;;;1.98;;
27489;SDS011;14925;51.026;13.752;2022-08-11T19:35:27;3.15;;;2.00;;
27489;SDS011;14925;51.026;13.752;2022-08-11T19:38:16;4.60;;;2.10;;
27489;SDS011;14925;51.026;13.752;2022-08-11T19:41:01;5.35;;;2.42;;
27489;SDS011;14925;51.026;13.752;2022-08-11T19:47:02;5.43;;;2.40;;
27489;SDS011;14925;51.026;13.752;2022-08-11T19:49:49;3.83;;;2.20;;
27489;SDS011;14925;51.026;13.752;2022-08-11T19:52:34;4.53;;;2.10;;
27489;SDS011;14925;51.026;13.752;2022-08-11T19:58:03;4.22;;;2.17;;
27489;SDS011;14925;51.026;13.752;2022-08-11T20:03:31;3.53;;;1.90;;
27489;SDS011;14925;51.026;13.752;2022-08-11T20:06:15;2.55;;;1.70;;
27489;SDS011;14925;51.026;13.752;2022-08-11T20:09:02;3.03;;;1.70;;